Time;durP1;ratioP1;P1;durP2;ratioP2;P2;SDS_P1;SDS_P2;PMS_P1;PMS_P2;Temp;Humidity;BMP_temperature;BMP_pressure;BME280_temperature;BME280_humidity;BME280_pressure;Samples;Min_cycle;Max_cycle;Signal;HPM_P1;HPM_P2
2022/09/14 00:00:45;;;;;;;1.50;1.40;;;23.40;99.90;;;;;;5134541;22;20443;-66
2022/09/14 00:03:12;;;;;;;1.90;1.80;;;23.40;99.90;;;;;;5032634;28;20457;-68
2022/09/14 00:05:39;;;;;;;2.93;1.57;;;23.40;99.90;;;;;;5033957;28;20451;-69
2022/09/14 00:08:07;;;;;;;2.10;1.40;;;23.40;99.90;;;;;;5033658;28;20782;-68
2022/09/14 00:10:38;;;;;;;1.60;1.50;;;23.40;99.90;;;;;;5032487;28;20498;-68
2022/09/14 00:13:05;;;;;;;1.40;1.30;;;23.30;99.90;;;;;;5013604;28;20449;-68
2022/09/14 00:15:36;;;;;;;1.63;1.20;;;23.40;99.90;;;;;;5013356;28;20446;-68
2022/09/14 00:18:02;;;;;;;1.70;1.60;;;23.30;99.90;;;;;;5014064;28;20457;-68
2022/09/14 00:20:30;;;;;;;2.87;1.47;;;23.30;99.90;;;;;;5013022;28;20452;-68
2022/09/14 00:22:57;;;;;;;2.20;1.43;;;23.30;99.90;;;;;;5013393;28;20552;-68
2022/09/14 00:25:26;;;;;;;1.80;1.70;;;23.30;99.90;;;;;;5012972;28;20643;-68
2022/09/14 00:27:53;;;;;;;1.30;1.30;;;23.20;99.90;;;;;;4993823;28;20443;-68
2022/09/14 00:30:22;;;;;;;2.30;2.10;;;23.20;99.90;;;;;;5009576;28;20484;-68
2022/09/14 00:32:49;;;;;;;2.60;1.03;;;23.20;99.90;;;;;;5012711;28;20465;-68
2022/09/14 00:35:17;;;;;;;1.50;1.20;;;23.20;99.90;;;;;;5013135;28;20544;-68
2022/09/14 00:37:43;;;;;;;1.00;1.00;;;23.20;99.90;;;;;;5012549;28;20548;-68
2022/09/14 00:40:11;;;;;;;1.67;1.57;;;23.20;99.90;;;;;;5012951;28;20464;-68
2022/09/14 00:42:39;;;;;;;1.40;1.30;;;23.20;99.90;;;;;;5012678;28;20505;-69
2022/09/14 00:45:13;;;;;;;1.00;1.00;;;23.10;99.90;;;;;;5012910;28;20529;-68
2022/09/14 00:47:42;;;;;;;1.80;1.70;;;23.10;99.90;;;;;;5012911;28;20464;-68
2022/09/14 00:50:10;;;;;;;3.00;1.57;;;23.10;99.90;;;;;;5012847;28;20474;-68
2022/09/14 00:52:42;;;;;;;4.00;2.13;;;23.10;99.90;;;;;;5012790;28;20473;-68
2022/09/14 00:55:11;;;;;;;1.50;1.40;;;23.10;99.90;;;;;;5012543;28;20450;-68
2022/09/14 00:57:42;;;;;;;1.83;1.73;;;23.10;99.90;;;;;;5011762;28;20448;-68
2022/09/14 01:00:11;;;;;;;1.80;1.70;;;23.10;99.90;;;;;;5012604;28;20486;-68
2022/09/14 01:02:38;;;;;;;2.70;1.50;;;23.10;99.90;;;;;;5012631;28;20553;-69
2022/09/14 01:05:07;;;;;;;1.43;1.33;;;23.00;99.90;;;;;;5012233;28;20450;-68
2022/09/14 01:07:49;;;;;;;2.30;1.47;;;23.00;99.90;;;;;;5012864;28;20790;-68
2022/09/14 01:10:29;;;;;;;1.70;1.60;;;23.00;99.90;;;;;;5012677;28;20581;-68
2022/09/14 01:13:08;;;;;;;6.70;1.80;;;23.00;99.90;;;;;;5012600;28;20548;-68
2022/09/14 01:15:43;;;;;;;4.40;1.30;;;23.00;99.90;;;;;;5012552;28;20453;-68
2022/09/14 01:18:18;;;;;;;1.73;1.60;;;23.00;99.90;;;;;;5012602;28;20446;-68
2022/09/14 01:20:53;;;;;;;1.60;1.50;;;23.00;99.90;;;;;;5011844;28;20891;-68
2022/09/14 01:23:29;;;;;;;1.87;1.60;;;23.00;99.90;;;;;;5012447;28;20531;-67
2022/09/14 01:26:20;;;;;;;3.93;1.10;;;23.00;99.90;;;;;;5011982;28;20447;-68
2022/09/14 01:28:52;;;;;;;0.80;0.80;;;23.00;99.90;;;;;;5012273;28;20450;-69
2022/09/14 01:31:27;;;;;;;1.20;1.20;;;23.00;99.90;;;;;;5011597;28;20832;-68
2022/09/14 01:33:59;;;;;;;1.20;1.20;;;23.00;99.90;;;;;;5012332;28;20453;-68
2022/09/14 01:36:29;;;;;;;1.63;1.53;;;23.00;99.90;;;;;;5011910;28;20438;-68
2022/09/14 01:38:56;;;;;;;4.40;2.63;;;23.00;99.90;;;;;;5011673;28;20450;-68
2022/09/14 01:41:28;;;;;;;2.07;1.37;;;23.00;99.90;;;;;;5011590;28;20462;-68
2022/09/14 01:44:03;;;;;;;1.47;1.37;;;23.00;99.90;;;;;;5011928;28;20465;-68
2022/09/14 01:46:37;;;;;;;1.53;1.23;;;22.90;99.90;;;;;;5011911;28;20812;-68
2022/09/14 01:49:11;;;;;;;1.73;1.63;;;23.00;99.90;;;;;;5012053;28;20879;-68
2022/09/14 01:51:42;;;;;;;2.93;1.90;;;23.00;99.90;;;;;;5011448;28;20489;-67
2022/09/14 01:54:16;;;;;;;2.37;1.30;;;23.00;99.90;;;;;;4999662;28;20446;-68
2022/09/14 01:56:51;;;;;;;1.00;1.00;;;23.00;99.90;;;;;;5011826;28;20456;-68
2022/09/14 01:59:23;;;;;;;2.63;1.80;;;23.00;99.90;;;;;;5011987;28;20784;-68
2022/09/14 02:01:54;;;;;;;2.30;2.20;;;23.00;99.90;;;;;;5011781;28;20828;-68
2022/09/14 02:04:28;;;;;;;1.53;1.40;;;23.00;99.90;;;;;;5011686;28;20974;-68
2022/09/14 02:06:56;;;;;;;1.53;1.43;;;23.00;99.90;;;;;;5011767;28;20452;-68
2022/09/14 02:09:25;;;;;;;1.77;1.60;;;22.90;99.90;;;;;;5011728;28;20453;-68
2022/09/14 02:11:53;;;;;;;1.60;1.50;;;22.90;99.90;;;;;;5015697;28;21017;-68
2022/09/14 02:14:22;;;;;;;1.07;1.07;;;22.90;99.90;;;;;;5015504;28;20446;-68
2022/09/14 02:16:49;;;;;;;1.60;1.50;;;22.90;99.90;;;;;;5015574;28;20456;-68
2022/09/14 02:19:16;;;;;;;1.27;1.27;;;22.90;99.90;;;;;;5015205;28;20450;-68
2022/09/14 02:21:42;;;;;;;2.87;1.33;;;22.90;99.90;;;;;;5015463;28;20555;-68
2022/09/14 02:24:10;;;;;;;1.50;1.40;;;22.90;99.90;;;;;;5014985;28;20446;-68
2022/09/14 02:26:38;;;;;;;5.60;1.60;;;22.90;99.90;;;;;;5015600;28;20448;-68
2022/09/14 02:29:05;;;;;;;1.87;1.30;;;22.90;99.90;;;;;;5015436;28;20884;-68
2022/09/14 02:31:44;;;;;;;1.10;1.10;;;22.90;99.90;;;;;;5014899;28;20516;-69
2022/09/14 02:34:19;;;;;;;1.80;1.40;;;22.80;99.90;;;;;;5000279;28;20463;-68
2022/09/14 02:36:51;;;;;;;2.40;1.80;;;22.80;99.90;;;;;;5015482;28;20437;-67
2022/09/14 02:39:26;;;;;;;3.63;1.90;;;22.80;99.90;;;;;;5015273;28;20646;-68
2022/09/14 02:42:03;;;;;;;1.93;1.77;;;22.80;99.90;;;;;;5014854;28;20466;-68
2022/09/14 02:44:36;;;;;;;1.80;1.70;;;22.80;99.90;;;;;;5014850;28;20452;-68
2022/09/14 02:47:15;;;;;;;1.53;1.40;;;22.70;99.90;;;;;;5015228;28;20452;-68
2022/09/14 02:49:48;;;;;;;2.13;2.00;;;22.70;99.90;;;;;;5015224;28;20456;-68
2022/09/14 02:52:18;;;;;;;1.67;1.57;;;22.70;99.90;;;;;;5014683;28;21053;-68
2022/09/14 02:54:52;;;;;;;2.37;1.60;;;22.70;99.90;;;;;;5014533;28;20537;-68
2022/09/14 02:57:19;;;;;;;1.20;1.10;;;22.70;99.90;;;;;;5014918;28;20449;-69
2022/09/14 02:59:46;;;;;;;1.20;1.10;;;22.70;99.90;;;;;;5014709;28;20477;-68
2022/09/14 03:02:14;;;;;;;4.03;1.63;;;22.70;99.90;;;;;;5014653;28;20508;-68
2022/09/14 03:04:41;;;;;;;1.87;1.77;;;22.70;99.90;;;;;;5014324;28;20540;-68
2022/09/14 03:07:07;;;;;;;1.60;1.50;;;22.70;99.90;;;;;;5014727;28;20454;-68
2022/09/14 03:09:34;;;;;;;2.03;1.40;;;22.70;99.90;;;;;;5014820;28;20524;-68
2022/09/14 03:12:02;;;;;;;2.20;1.83;;;22.70;99.90;;;;;;5014728;28;20561;-68
2022/09/14 03:14:28;;;;;;;1.23;1.13;;;22.70;99.90;;;;;;5014625;28;20931;-67
2022/09/14 03:16:55;;;;;;;2.00;1.33;;;22.60;99.90;;;;;;5014434;28;20549;-67
2022/09/14 03:19:23;;;;;;;6.90;3.50;;;22.60;99.90;;;;;;5014902;28;20905;-68
2022/09/14 03:21:50;;;;;;;1.70;1.60;;;22.60;99.90;;;;;;5014027;28;20557;-68
2022/09/14 03:24:17;;;;;;;1.80;1.70;;;22.60;99.90;;;;;;5014393;28;21077;-68
2022/09/14 03:26:45;;;;;;;2.13;1.60;;;22.60;99.90;;;;;;5014619;28;20496;-68
2022/09/14 03:29:11;;;;;;;1.80;1.70;;;22.60;99.90;;;;;;5014282;28;20450;-68
2022/09/14 03:31:38;;;;;;;1.57;1.30;;;22.60;99.90;;;;;;5013802;28;20585;-68
2022/09/14 03:34:05;;;;;;;1.90;1.80;;;22.60;99.90;;;;;;5014188;28;20754;-68
2022/09/14 03:36:33;;;;;;;1.93;1.80;;;22.60;99.90;;;;;;5014041;28;20588;-68
2022/09/14 03:39:01;;;;;;;2.40;1.90;;;22.50;99.90;;;;;;5014195;28;20537;-68
2022/09/14 03:41:29;;;;;;;1.90;1.80;;;22.50;99.90;;;;;;5014249;28;20466;-68
2022/09/14 03:43:56;;;;;;;1.70;1.67;;;22.50;99.90;;;;;;5014490;28;20537;-68
2022/09/14 03:46:24;;;;;;;1.87;1.77;;;22.50;99.90;;;;;;5014338;28;20493;-68
2022/09/14 03:48:52;;;;;;;3.03;1.90;;;22.50;99.90;;;;;;5014093;28;20446;-68
2022/09/14 03:51:19;;;;;;;2.30;2.10;;;22.50;99.90;;;;;;5013555;28;20489;-68
2022/09/14 03:53:47;;;;;;;2.10;1.83;;;22.50;99.90;;;;;;5013907;28;20449;-68
2022/09/14 03:56:16;;;;;;;4.00;1.93;;;22.50;99.90;;;;;;5014140;28;20545;-69
2022/09/14 03:58:43;;;;;;;2.33;1.97;;;22.50;99.90;;;;;;5013823;28;20458;-68
2022/09/14 04:12:43;;;;;;;2.10;2.00;;;22.50;99.90;;;;;;5163753;27;20629;-64
2022/09/14 04:15:10;;;;;;;2.53;2.43;;;22.90;99.90;;;;;;5119471;27;20445;-65
2022/09/14 04:17:39;;;;;;;2.30;2.13;;;22.80;99.90;;;;;;5109172;28;20444;-65
2022/09/14 04:20:07;;;;;;;1.90;1.80;;;22.80;99.90;;;;;;5124287;28;20447;-66
2022/09/14 04:22:34;;;;;;;2.60;1.80;;;22.70;99.90;;;;;;5125381;28;20865;-65
2022/09/14 04:25:02;;;;;;;4.17;2.63;;;22.70;99.90;;;;;;5121574;22;20498;-71
2022/09/14 04:27:30;;;;;;;2.47;2.27;;;22.70;99.90;;;;;;4997583;28;20458;-69
2022/09/14 04:29:58;;;;;;;1.93;1.80;;;22.60;99.90;;;;;;4986508;28;20938;-68
2022/09/14 04:32:25;;;;;;;4.13;2.10;;;22.60;99.90;;;;;;4985577;28;20539;-68
2022/09/14 04:34:52;;;;;;;3.30;1.47;;;22.60;99.90;;;;;;4980417;28;20492;-68
2022/09/14 04:37:18;;;;;;;4.87;3.30;;;22.60;99.90;;;;;;4966160;28;21842;-68
2022/09/14 04:39:45;;;;;;;5.10;2.53;;;22.60;99.90;;;;;;4965972;28;20544;-68
2022/09/14 04:42:12;;;;;;;5.80;2.80;;;22.70;99.90;;;;;;4966150;28;20894;-63
2022/09/14 04:44:39;;;;;;;3.40;3.10;;;22.70;99.90;;;;;;4966470;28;20474;-64
2022/09/14 04:47:07;;;;;;;9.50;2.90;;;22.70;99.90;;;;;;4966259;28;20534;-63
2022/09/14 04:49:34;;;;;;;3.20;2.80;;;22.70;99.90;;;;;;4966266;28;20450;-63
2022/09/14 04:52:01;;;;;;;4.40;3.17;;;22.80;99.90;;;;;;4966076;28;20988;-64
2022/09/14 04:54:28;;;;;;;2.70;2.50;;;22.80;99.90;;;;;;4966147;28;20452;-63
2022/09/14 04:56:55;;;;;;;4.93;2.43;;;22.80;99.90;;;;;;4966340;28;20444;-63
2022/09/14 04:59:22;;;;;;;3.63;2.37;;;22.80;99.90;;;;;;4966180;28;20448;-63
2022/09/14 05:01:49;;;;;;;1.90;1.80;;;22.80;99.90;;;;;;4965908;28;20904;-64
2022/09/14 05:04:17;;;;;;;4.77;2.43;;;22.80;99.90;;;;;;4965995;28;20452;-63
2022/09/14 05:06:44;;;;;;;3.10;1.80;;;22.80;99.90;;;;;;4965966;28;20965;-64
2022/09/14 05:09:14;;;;;;;4.50;2.10;;;22.80;99.90;;;;;;4966085;28;20458;-62
2022/09/14 05:11:41;;;;;;;3.93;2.13;;;22.80;99.90;;;;;;4963628;28;20452;-63
2022/09/14 05:14:10;;;;;;;3.37;2.10;;;22.80;99.90;;;;;;4952890;28;20548;-64
2022/09/14 05:16:39;;;;;;;1.63;1.53;;;22.80;99.90;;;;;;4952965;29;20465;-63
2022/09/14 05:19:08;;;;;;;5.90;2.77;;;22.80;99.90;;;;;;4953109;28;20941;-64
2022/09/14 05:21:37;;;;;;;1.73;1.63;;;22.80;99.90;;;;;;4952811;28;20484;-64
2022/09/14 05:24:07;;;;;;;3.17;1.53;;;22.80;99.90;;;;;;4953067;29;20453;-63
2022/09/14 05:26:34;;;;;;;2.30;2.20;;;22.80;99.90;;;;;;4952748;28;20477;-63
2022/09/14 05:29:02;;;;;;;1.73;1.63;;;22.80;99.90;;;;;;4952891;28;20621;-63
2022/09/14 05:31:30;;;;;;;2.20;1.97;;;22.80;99.90;;;;;;4952687;28;20451;-61
2022/09/14 05:33:58;;;;;;;4.10;2.00;;;22.80;99.90;;;;;;4952845;28;20498;-62
2022/09/14 05:36:25;;;;;;;2.23;2.13;;;22.80;99.90;;;;;;4952670;28;20987;-63
2022/09/14 05:38:54;;;;;;;1.93;1.57;;;22.80;99.90;;;;;;4952828;28;20445;-63
2022/09/14 05:41:20;;;;;;;1.80;1.70;;;22.80;99.90;;;;;;4952518;28;21093;-64
2022/09/14 05:43:47;;;;;;;1.30;1.20;;;22.80;99.90;;;;;;4952494;28;20544;-64
2022/09/14 05:46:18;;;;;;;1.43;1.20;;;22.80;99.90;;;;;;4952563;28;20469;-63
2022/09/14 05:48:45;;;;;;;6.23;2.83;;;22.80;99.90;;;;;;4952611;28;20453;-63
2022/09/14 05:51:16;;;;;;;2.17;1.30;;;22.80;99.90;;;;;;4952478;28;20870;-64
2022/09/14 05:53:43;;;;;;;1.80;1.70;;;22.80;99.90;;;;;;4952515;29;21002;-64
2022/09/14 05:56:13;;;;;;;2.27;1.70;;;22.80;99.90;;;;;;4952467;28;20560;-64
2022/09/14 05:58:41;;;;;;;2.10;1.87;;;22.80;99.90;;;;;;4952565;29;20452;-63
2022/09/14 06:01:09;;;;;;;3.40;1.80;;;22.80;99.90;;;;;;4952319;29;20484;-64
2022/09/14 06:03:36;;;;;;;0.90;0.90;;;22.80;99.90;;;;;;4952325;28;20528;-63
2022/09/14 06:06:05;;;;;;;1.67;1.27;;;22.80;99.90;;;;;;4952254;29;20473;-64
2022/09/14 06:08:32;;;;;;;1.70;1.60;;;22.80;99.90;;;;;;4952201;28;20535;-62
2022/09/14 06:11:03;;;;;;;1.50;1.40;;;22.80;99.90;;;;;;4952344;29;20452;-63
2022/09/14 06:13:31;;;;;;;1.30;1.20;;;22.80;99.90;;;;;;4952102;29;20452;-63
2022/09/14 06:16:02;;;;;;;1.73;1.40;;;22.80;99.90;;;;;;4952199;28;20465;-64
2022/09/14 06:18:30;;;;;;;2.47;1.50;;;22.80;99.90;;;;;;4952350;28;20867;-63
2022/09/14 06:20:57;;;;;;;1.50;1.30;;;22.80;99.90;;;;;;4952126;28;20477;-63
2022/09/14 06:23:24;;;;;;;1.53;1.43;;;22.80;99.90;;;;;;4951270;28;20488;-64
2022/09/14 06:25:53;;;;;;;2.27;1.40;;;22.80;99.90;;;;;;4951473;29;20480;-64
2022/09/14 06:28:20;;;;;;;2.80;1.53;;;22.80;99.90;;;;;;4951896;28;20457;-64
2022/09/14 06:30:48;;;;;;;1.60;1.30;;;22.80;99.90;;;;;;4951930;28;20449;-64
2022/09/14 06:33:15;;;;;;;1.33;1.00;;;22.80;99.90;;;;;;4951920;28;20444;-65
2022/09/14 06:35:45;;;;;;;1.10;1.10;;;22.80;99.90;;;;;;4951807;28;20526;-64
2022/09/14 06:38:12;;;;;;;1.83;1.60;;;22.80;99.90;;;;;;4952053;28;20467;-64
2022/09/14 06:40:38;;;;;;;1.50;1.00;;;22.80;99.90;;;;;;4951608;29;20496;-64
2022/09/14 06:43:05;;;;;;;1.60;1.50;;;22.80;99.90;;;;;;4951463;29;20475;-65
2022/09/14 06:45:32;;;;;;;1.60;1.00;;;22.80;99.90;;;;;;4951547;28;20999;-64
2022/09/14 06:48:00;;;;;;;2.60;1.93;;;22.80;99.90;;;;;;4951818;28;20536;-64
2022/09/14 06:50:27;;;;;;;1.00;1.00;;;22.80;99.90;;;;;;4951745;28;20444;-64
2022/09/14 06:52:54;;;;;;;1.40;1.17;;;22.80;99.90;;;;;;4951459;29;20453;-64
2022/09/14 06:55:21;;;;;;;1.63;1.30;;;22.80;99.90;;;;;;4951557;29;20504;-64
2022/09/14 06:57:48;;;;;;;1.10;1.00;;;22.80;99.90;;;;;;4951586;29;20526;-64
2022/09/14 07:00:16;;;;;;;1.57;1.13;;;22.80;99.90;;;;;;4951521;28;20452;-64
2022/09/14 07:02:43;;;;;;;1.33;1.10;;;22.80;99.90;;;;;;4951202;28;20491;-65
2022/09/14 07:05:14;;;;;;;5.33;1.77;;;22.80;99.90;;;;;;4951378;29;20844;-63
2022/09/14 07:07:41;;;;;;;1.60;1.00;;;22.80;99.90;;;;;;4951402;28;20445;-64
2022/09/14 07:10:08;;;;;;;1.70;1.20;;;22.80;99.90;;;;;;4951478;28;20480;-64
2022/09/14 07:12:35;;;;;;;1.57;1.00;;;22.80;99.90;;;;;;4951048;28;20540;-64
2022/09/14 07:15:03;;;;;;;2.63;1.40;;;22.80;99.90;;;;;;4951321;28;20563;-65
2022/09/14 07:17:30;;;;;;;2.73;1.40;;;22.80;99.90;;;;;;4951273;29;20448;-64
2022/09/14 07:19:57;;;;;;;1.60;1.50;;;22.80;99.90;;;;;;4951223;29;20499;-64
2022/09/14 07:22:25;;;;;;;1.20;1.10;;;22.80;99.90;;;;;;4950933;28;20527;-64
2022/09/14 07:24:52;;;;;;;1.30;1.20;;;22.80;99.90;;;;;;4950921;29;20519;-64
2022/09/14 07:27:19;;;;;;;1.20;1.20;;;22.80;99.90;;;;;;4951193;29;20449;-63
2022/09/14 07:29:46;;;;;;;1.10;1.03;;;22.80;99.90;;;;;;4951114;29;20496;-64
2022/09/14 07:32:13;;;;;;;1.03;0.93;;;22.80;99.90;;;;;;4950880;29;20817;-64
2022/09/14 07:34:39;;;;;;;4.13;1.20;;;22.80;99.90;;;;;;4950786;28;20523;-65
2022/09/14 07:37:06;;;;;;;3.67;1.40;;;22.80;99.90;;;;;;4951002;28;20459;-65
2022/09/14 07:39:34;;;;;;;0.83;0.80;;;22.80;99.90;;;;;;4951029;29;20899;-65
2022/09/14 07:42:01;;;;;;;1.10;1.00;;;22.80;99.90;;;;;;4950636;28;20571;-64
2022/09/14 07:44:28;;;;;;;1.20;1.00;;;22.80;99.90;;;;;;4950808;28;20444;-64
2022/09/14 07:46:55;;;;;;;0.93;0.90;;;22.80;99.90;;;;;;4950995;28;20457;-64
2022/09/14 07:49:22;;;;;;;1.40;1.20;;;22.70;99.90;;;;;;4950870;28;20444;-64
2022/09/14 07:51:49;;;;;;;0.93;0.93;;;22.80;99.90;;;;;;4950766;28;20477;-65
2022/09/14 07:54:17;;;;;;;1.27;1.17;;;22.80;99.90;;;;;;4950751;29;20488;-64
2022/09/14 07:56:47;;;;;;;1.70;1.00;;;22.80;99.90;;;;;;4950667;28;20548;-64
2022/09/14 07:59:14;;;;;;;1.30;0.90;;;22.80;99.90;;;;;;4950707;29;20555;-65
2022/09/14 08:01:41;;;;;;;1.40;1.40;;;22.80;99.90;;;;;;4950485;28;20495;-63
2022/09/14 08:04:08;;;;;;;1.13;1.10;;;22.80;99.90;;;;;;4950621;29;20449;-63
2022/09/14 08:06:36;;;;;;;2.90;1.73;;;22.70;99.90;;;;;;4950657;28;20476;-64
2022/09/14 08:09:06;;;;;;;2.50;2.00;;;22.70;99.90;;;;;;4950558;28;20843;-65
2022/09/14 08:11:34;;;;;;;1.30;1.20;;;22.80;99.90;;;;;;4950422;28;20449;-65
2022/09/14 08:14:04;;;;;;;2.20;1.60;;;22.70;99.90;;;;;;4950481;29;20931;-64
2022/09/14 08:16:33;;;;;;;1.10;1.10;;;22.70;99.90;;;;;;4950460;28;20898;-65
2022/09/14 08:19:01;;;;;;;1.67;1.33;;;22.70;99.90;;;;;;4950590;29;20898;-64
2022/09/14 08:21:30;;;;;;;1.40;1.27;;;22.70;99.90;;;;;;4950257;28;20579;-63
2022/09/14 08:23:57;;;;;;;1.50;1.40;;;22.70;99.90;;;;;;4950506;29;20453;-65
2022/09/14 08:26:25;;;;;;;1.47;1.10;;;22.70;99.90;;;;;;4950260;28;20564;-65
2022/09/14 08:28:54;;;;;;;2.43;1.20;;;22.70;99.90;;;;;;4950648;28;20899;-64
2022/09/14 08:31:24;;;;;;;2.80;1.10;;;22.70;99.90;;;;;;4950325;29;20459;-65
2022/09/14 08:33:55;;;;;;;2.20;1.70;;;22.70;99.90;;;;;;4950148;28;20537;-64
2022/09/14 08:36:23;;;;;;;0.97;0.97;;;22.70;99.90;;;;;;4950255;28;20551;-65
2022/09/14 08:38:50;;;;;;;0.90;0.90;;;22.70;99.90;;;;;;4950285;29;20463;-64
2022/09/14 08:41:26;;;;;;;0.87;0.87;;;22.70;99.90;;;;;;4950097;29;20874;-65
2022/09/14 08:43:53;;;;;;;1.40;1.00;;;22.70;99.90;;;;;;4950176;29;21026;-65
2022/09/14 08:46:28;;;;;;;2.10;1.00;;;22.70;99.90;;;;;;4950180;28;20504;-64
2022/09/14 08:48:56;;;;;;;4.87;1.50;;;22.70;99.90;;;;;;4953116;28;20509;-64
2022/09/14 08:51:23;;;;;;;1.20;1.20;;;22.70;99.90;;;;;;4953292;28;20448;-64
2022/09/14 08:53:52;;;;;;;2.10;1.13;;;22.70;99.90;;;;;;4953281;28;20457;-64
2022/09/14 08:56:23;;;;;;;1.07;1.07;;;22.70;99.90;;;;;;4953284;28;20475;-65
2022/09/14 08:58:59;;;;;;;1.90;1.43;;;22.70;99.90;;;;;;4953456;29;20977;-65
2022/09/14 09:01:40;;;;;;;1.37;1.27;;;22.70;99.90;;;;;;4953110;29;20574;-65
2022/09/14 09:04:22;;;;;;;1.17;1.07;;;22.70;99.90;;;;;;4953312;28;20450;-65
2022/09/14 09:06:56;;;;;;;1.23;1.13;;;22.70;99.90;;;;;;4953260;29;20448;-64
2022/09/14 09:09:28;;;;;;;1.47;1.10;;;22.70;99.90;;;;;;4953219;28;20456;-65
2022/09/14 09:11:55;;;;;;;1.10;1.10;;;22.70;99.90;;;;;;4953029;28;20532;-63
2022/09/14 09:14:27;;;;;;;1.20;1.10;;;22.70;99.90;;;;;;4952910;28;20453;-65
2022/09/14 09:16:59;;;;;;;1.00;1.00;;;22.70;99.90;;;;;;4953099;28;20539;-64
2022/09/14 09:19:30;;;;;;;1.73;1.20;;;22.70;99.90;;;;;;4953158;28;21014;-64
2022/09/14 09:22:00;;;;;;;0.80;0.80;;;22.70;99.90;;;;;;4952770;28;20481;-63
2022/09/14 09:24:30;;;;;;;1.63;1.20;;;22.70;99.90;;;;;;4952637;28;20966;-64
2022/09/14 09:26:57;;;;;;;1.60;1.20;;;22.70;99.90;;;;;;4952937;28;20498;-64
2022/09/14 09:29:24;;;;;;;1.13;1.03;;;22.70;99.90;;;;;;4952976;29;21075;-64
2022/09/14 09:31:53;;;;;;;1.20;1.00;;;22.70;99.90;;;;;;4952638;29;20449;-65
2022/09/14 09:34:26;;;;;;;1.13;1.13;;;22.70;99.90;;;;;;4952686;29;20531;-64
2022/09/14 09:36:54;;;;;;;1.10;0.97;;;22.70;99.90;;;;;;4952893;28;20830;-64
2022/09/14 09:39:22;;;;;;;1.00;1.00;;;22.70;99.90;;;;;;4952814;28;20503;-64
2022/09/14 09:41:55;;;;;;;1.00;1.00;;;22.70;99.90;;;;;;4952441;29;20451;-64
2022/09/14 09:44:22;;;;;;;1.07;1.00;;;22.70;99.90;;;;;;4952597;28;20958;-64
2022/09/14 09:46:51;;;;;;;1.00;0.93;;;22.70;99.90;;;;;;4952661;28;20538;-64
2022/09/14 09:49:23;;;;;;;1.10;1.00;;;22.70;99.90;;;;;;4952632;28;20879;-63
2022/09/14 09:51:51;;;;;;;1.10;1.10;;;22.70;99.90;;;;;;4951733;28;20452;-64
2022/09/14 09:54:30;;;;;;;1.00;0.90;;;22.70;99.90;;;;;;4951697;28;20540;-62
2022/09/14 09:56:58;;;;;;;1.33;1.23;;;22.70;99.90;;;;;;4952514;28;20449;-64
2022/09/14 09:59:31;;;;;;;1.70;1.40;;;22.70;99.90;;;;;;4952219;28;20544;-63
2022/09/14 10:02:26;;;;;;;1.60;1.37;;;22.60;99.90;;;;;;4952159;28;20449;-65
2022/09/14 10:05:01;;;;;;;1.97;1.87;;;22.60;99.90;;;;;;4933292;29;20560;-65
2022/09/14 10:07:30;;;;;;;1.20;1.17;;;22.60;99.90;;;;;;4933283;29;20788;-66
2022/09/14 10:09:59;;;;;;;2.07;1.97;;;22.50;99.90;;;;;;4933259;29;20540;-65
2022/09/14 10:12:26;;;;;;;2.30;2.10;;;22.60;99.90;;;;;;4932985;29;20450;-65
2022/09/14 10:15:16;;;;;;;2.50;2.40;;;22.50;99.90;;;;;;4935560;29;20719;-64
2022/09/14 10:18:07;;;;;;;2.20;2.10;;;22.50;99.90;;;;;;4933126;29;20446;-65
2022/09/14 10:20:39;;;;;;;2.30;2.20;;;22.50;99.90;;;;;;4932954;29;20836;-64
2022/09/14 10:23:24;;;;;;;2.40;2.30;;;22.50;99.90;;;;;;4932685;29;20524;-62
2022/09/14 10:25:54;;;;;;;3.07;2.87;;;22.50;99.90;;;;;;4933425;28;20477;-63
2022/09/14 10:28:28;;;;;;;2.97;2.77;;;22.50;99.90;;;;;;4944847;29;20453;-64
2022/09/14 10:31:01;;;;;;;2.10;2.00;;;22.50;99.90;;;;;;4952154;28;20488;-65
2022/09/14 10:33:28;;;;;;;2.00;1.90;;;22.50;99.90;;;;;;4951489;28;20464;-64
2022/09/14 10:36:07;;;;;;;2.17;2.07;;;22.50;99.90;;;;;;4951658;28;21041;-62
2022/09/14 10:38:41;;;;;;;1.90;1.80;;;22.50;99.90;;;;;;4951809;29;20449;-64
2022/09/14 10:41:23;;;;;;;2.17;2.07;;;22.40;99.90;;;;;;4951913;28;20476;-65
2022/09/14 10:44:07;;;;;;;1.77;1.67;;;22.40;99.90;;;;;;4951707;29;20485;-64
2022/09/14 10:46:42;;;;;;;2.03;1.93;;;22.40;99.90;;;;;;4951147;28;20928;-61
2022/09/14 10:49:22;;;;;;;2.33;2.20;;;22.40;99.90;;;;;;4951338;28;20535;-64
2022/09/14 10:51:59;;;;;;;2.40;2.30;;;22.40;99.90;;;;;;4951510;28;20540;-63
2022/09/14 10:54:51;;;;;;;2.63;2.10;;;22.50;99.90;;;;;;4951692;28;20455;-62
2022/09/14 10:57:30;;;;;;;2.27;2.17;;;22.50;99.90;;;;;;4952820;28;20547;-63
2022/09/14 11:00:04;;;;;;;2.13;2.03;;;22.50;99.90;;;;;;4951394;28;20460;-64
2022/09/14 11:03:03;;;;;;;2.23;2.00;;;22.50;99.90;;;;;;4951315;28;20491;-63
2022/09/14 11:05:34;;;;;;;2.30;1.80;;;22.50;99.90;;;;;;4972382;28;20473;-63
2022/09/14 11:08:13;;;;;;;2.00;1.90;;;22.50;99.90;;;;;;4951511;28;20449;-63
2022/09/14 11:10:51;;;;;;;1.70;1.60;;;22.50;99.90;;;;;;4950892;28;20451;-63
2022/09/14 11:13:37;;;;;;;1.60;1.50;;;22.50;99.90;;;;;;4951194;29;20820;-62
2022/09/14 11:16:22;;;;;;;1.63;1.60;;;22.60;99.90;;;;;;4951258;28;20471;-64
2022/09/14 11:19:00;;;;;;;1.73;1.63;;;22.60;99.90;;;;;;4951298;29;20444;-63
2022/09/14 11:21:38;;;;;;;1.40;1.40;;;22.60;99.90;;;;;;4951061;28;20932;-64
2022/09/14 11:24:13;;;;;;;2.57;2.37;;;22.60;99.90;;;;;;4951147;28;20842;-62
2022/09/14 11:26:45;;;;;;;1.40;1.40;;;22.60;99.90;;;;;;4951026;28;20487;-64
2022/09/14 11:29:18;;;;;;;1.60;1.60;;;22.60;99.90;;;;;;4951207;29;20453;-64
2022/09/14 11:31:50;;;;;;;2.10;1.80;;;22.60;99.90;;;;;;4950917;28;21007;-64
2022/09/14 11:34:21;;;;;;;1.70;1.70;;;22.60;99.90;;;;;;4951075;28;20876;-64
2022/09/14 11:36:51;;;;;;;1.27;1.27;;;22.60;99.90;;;;;;4951028;29;20456;-63
2022/09/14 11:39:22;;;;;;;1.10;1.10;;;22.60;99.90;;;;;;4951036;28;20459;-63
2022/09/14 11:41:53;;;;;;;1.20;1.20;;;22.50;99.90;;;;;;4950956;28;20995;-63
2022/09/14 11:44:24;;;;;;;1.50;1.40;;;22.50;99.90;;;;;;4950885;28;20495;-63
2022/09/14 11:46:56;;;;;;;1.23;1.23;;;22.60;99.90;;;;;;4950975;28;20447;-63
2022/09/14 11:49:28;;;;;;;1.50;1.50;;;22.60;99.90;;;;;;4950929;29;20461;-62
2022/09/14 11:52:00;;;;;;;1.37;1.37;;;22.60;99.90;;;;;;4950718;28;20448;-63
2022/09/14 11:54:28;;;;;;;1.07;1.07;;;22.60;99.90;;;;;;4950694;29;20538;-63
2022/09/14 11:56:58;;;;;;;1.40;1.30;;;22.60;99.90;;;;;;4950876;28;20558;-63
2022/09/14 11:59:37;;;;;;;1.00;1.00;;;22.60;99.90;;;;;;4950797;28;20453;-63
2022/09/14 12:02:39;;;;;;;1.10;1.00;;;22.50;99.90;;;;;;4950744;28;20444;-64
2022/09/14 12:05:31;;;;;;;1.30;1.30;;;22.50;99.90;;;;;;4951576;28;20484;-64
2022/09/14 12:08:00;;;;;;;1.40;1.40;;;22.50;99.90;;;;;;4952398;28;20535;-63
2022/09/14 12:10:29;;;;;;;0.90;0.90;;;22.50;99.90;;;;;;4950739;28;20874;-63
2022/09/14 12:12:58;;;;;;;1.30;1.30;;;22.50;99.90;;;;;;4950596;28;21027;-62
2022/09/14 12:15:35;;;;;;;1.50;1.40;;;22.50;99.90;;;;;;4950566;29;20479;-63
2022/09/14 12:18:27;;;;;;;1.03;1.03;;;22.50;99.90;;;;;;4950801;28;20454;-64
2022/09/14 12:21:02;;;;;;;1.13;1.13;;;22.60;99.90;;;;;;4950568;28;20452;-63
2022/09/14 12:23:45;;;;;;;1.30;1.30;;;22.60;99.90;;;;;;4952629;29;20491;-64
2022/09/14 12:26:33;;;;;;;1.83;1.00;;;22.50;99.90;;;;;;4955090;28;20488;-64
2022/09/14 12:29:05;;;;;;;0.90;0.90;;;22.50;99.90;;;;;;4953997;28;20444;-64
2022/09/14 12:31:37;;;;;;;1.20;1.20;;;22.60;99.90;;;;;;4953796;28;20531;-63
2022/09/14 12:34:19;;;;;;;1.53;1.53;;;22.50;99.90;;;;;;4953704;28;20441;-64
2022/09/14 12:37:28;;;;;;;1.37;1.37;;;22.50;99.90;;;;;;4953736;29;20445;-64
2022/09/14 12:40:35;;;;;;;0.93;0.93;;;22.50;99.90;;;;;;4953812;29;20923;-64
2022/09/14 12:43:44;;;;;;;1.20;1.17;;;22.50;99.90;;;;;;4953404;29;20491;-65
2022/09/14 12:46:37;;;;;;;0.90;0.90;;;22.50;99.90;;;;;;4953516;28;20954;-64
2022/09/14 12:49:44;;;;;;;1.27;1.27;;;22.40;99.90;;;;;;4953532;28;20449;-63
2022/09/14 12:52:33;;;;;;;1.13;1.03;;;22.40;99.90;;;;;;4992978;28;20446;-64
2022/09/14 12:55:20;;;;;;;1.33;1.20;;;22.40;99.90;;;;;;4956699;28;20504;-64
2022/09/14 12:57:55;;;;;;;1.43;0.87;;;22.40;99.90;;;;;;4953374;29;20445;-62
2022/09/14 13:00:23;;;;;;;1.30;1.30;;;22.40;99.90;;;;;;4953323;28;20452;-64
2022/09/14 13:03:17;;;;;;;1.20;1.00;;;22.50;99.90;;;;;;4953321;28;20824;-62
2022/09/14 13:05:45;;;;;;;1.00;1.00;;;22.50;99.90;;;;;;4953114;29;20547;-64
2022/09/14 13:08:17;;;;;;;1.47;1.33;;;22.50;99.90;;;;;;4953019;29;20535;-69
2022/09/14 13:10:47;;;;;;;1.57;1.30;;;22.40;99.90;;;;;;4952917;28;20455;-66
2022/09/14 13:13:18;;;;;;;1.20;1.20;;;22.50;99.90;;;;;;4952998;29;20449;-67
2022/09/14 13:15:54;;;;;;;1.60;1.23;;;22.40;99.90;;;;;;4953568;29;20477;-65
2022/09/14 13:18:29;;;;;;;0.90;0.90;;;22.40;99.90;;;;;;4953282;29;20464;-65
2022/09/14 13:20:57;;;;;;;1.27;1.10;;;22.40;99.90;;;;;;4953470;28;20781;-68